Taylortown, New Jersey
Current Conditions -  °F | °C
As of 2:53 PM on Thursday 30 Oct 2014 (Local Time) from KCDW Reporting Station
Broken Clouds Broken Clouds  
Wind Chill: 56°   Ceiling: 5000
Heat Index: 56°   Visibility: 10mi
Dew Point: 34°   Wind: 12mph
Humidity: 44%   Direction: 340°NNW
Pressure: 29.98"   Gusts: 22mph
Location:  40.929°N, 74.4211°W
Report Text: KCDW 301853Z 34010G19KT 310V010 10SM BKN050 13/01 A2998 RMK AO2 SLP158 T01330011
Loading
Personal Weather Stations






























Interactive Weather Map
Tropical Storm Tracking
New forecast layout! Learn more

10-Day Weather Forecast

Advertisements
Track Severe Weather on mobile